sensor_id;sensor_type;location;lat;lon;timestamp;P1;durP1;ratioP1;P2;durP2;ratioP2
47009;SDS011;59230;54.164;-3.124;2023-09-30T00:01:59;24.85;;;2.58;;
47009;SDS011;59230;54.164;-3.124;2023-09-30T00:04:26;18.67;;;2.35;;
47009;SDS011;59230;54.164;-3.124;2023-09-30T00:06:53;14.93;;;2.92;;
47009;SDS011;59230;54.164;-3.124;2023-09-30T00:09:19;19.98;;;2.88;;
47009;SDS011;59230;54.164;-3.124;2023-09-30T00:11:46;18.30;;;3.20;;
47009;SDS011;59230;54.164;-3.124;2023-09-30T00:14:34;22.00;;;2.72;;
47009;SDS011;59230;54.164;-3.124;2023-09-30T00:17:05;24.83;;;2.80;;
47009;SDS011;59230;54.164;-3.124;2023-09-30T00:19:32;20.55;;;2.60;;
47009;SDS011;59230;54.164;-3.124;2023-09-30T00:22:00;15.95;;;2.28;;
47009;SDS011;59230;54.164;-3.124;2023-09-30T00:24:26;18.05;;;2.75;;
47009;SDS011;59230;54.164;-3.124;2023-09-30T00:26:59;24.75;;;2.70;;
47009;SDS011;59230;54.164;-3.124;2023-09-30T00:29:27;21.23;;;3.38;;
47009;SDS011;59230;54.164;-3.124;2023-09-30T00:31:53;17.95;;;2.45;;
47009;SDS011;59230;54.164;-3.124;2023-09-30T00:34:20;22.20;;;2.35;;
47009;SDS011;59230;54.164;-3.124;2023-09-30T00:36:47;18.27;;;2.78;;
47009;SDS011;59230;54.164;-3.124;2023-09-30T00:39:13;16.00;;;2.40;;
47009;SDS011;59230;54.164;-3.124;2023-09-30T00:41:40;25.33;;;2.88;;
47009;SDS011;59230;54.164;-3.124;2023-09-30T00:44:06;32.25;;;3.22;;
47009;SDS011;59230;54.164;-3.124;2023-09-30T00:46:36;22.42;;;2.67;;
47009;SDS011;59230;54.164;-3.124;2023-09-30T00:49:02;19.85;;;3.15;;
47009;SDS011;59230;54.164;-3.124;2023-09-30T00:51:31;15.82;;;2.20;;
47009;SDS011;59230;54.164;-3.124;2023-09-30T00:53:59;30.08;;;3.90;;
47009;SDS011;59230;54.164;-3.124;2023-09-30T00:56:27;27.17;;;3.15;;
47009;SDS011;59230;54.164;-3.124;2023-09-30T00:59:13;20.10;;;2.85;;
47009;SDS011;59230;54.164;-3.124;2023-09-30T01:01:43;18.55;;;2.75;;
47009;SDS011;59230;54.164;-3.124;2023-09-30T01:04:31;20.00;;;2.70;;
47009;SDS011;59230;54.164;-3.124;2023-09-30T01:07:17;19.00;;;2.75;;
47009;SDS011;59230;54.164;-3.124;2023-09-30T01:09:47;18.63;;;2.60;;
47009;SDS011;59230;54.164;-3.124;2023-09-30T01:12:33;20.80;;;2.22;;
47009;SDS011;59230;54.164;-3.124;2023-09-30T01:15:21;17.15;;;2.33;;
47009;SDS011;59230;54.164;-3.124;2023-09-30T01:17:49;13.18;;;2.22;;
47009;SDS011;59230;54.164;-3.124;2023-09-30T01:20:15;24.23;;;2.20;;
47009;SDS011;59230;54.164;-3.124;2023-09-30T01:22:56;21.00;;;2.50;;
47009;SDS011;59230;54.164;-3.124;2023-09-30T01:25:25;12.10;;;2.38;;
47009;SDS011;59230;54.164;-3.124;2023-09-30T01:28:07;13.35;;;2.30;;
47009;SDS011;59230;54.164;-3.124;2023-09-30T01:30:34;15.73;;;2.47;;
47009;SDS011;59230;54.164;-3.124;2023-09-30T01:33:03;14.90;;;2.65;;
47009;SDS011;59230;54.164;-3.124;2023-09-30T01:38:20;22.42;;;2.70;;
47009;SDS011;59230;54.164;-3.124;2023-09-30T01:40:47;16.90;;;2.50;;
47009;SDS011;59230;54.164;-3.124;2023-09-30T01:43:54;25.02;;;2.42;;
47009;SDS011;59230;54.164;-3.124;2023-09-30T01:46:24;17.38;;;2.38;;
47009;SDS011;59230;54.164;-3.124;2023-09-30T01:48:52;16.77;;;2.17;;
47009;SDS011;59230;54.164;-3.124;2023-09-30T01:51:19;14.02;;;2.67;;
47009;SDS011;59230;54.164;-3.124;2023-09-30T01:56:39;16.83;;;2.42;;
47009;SDS011;59230;54.164;-3.124;2023-09-30T01:59:24;18.20;;;2.90;;
47009;SDS011;59230;54.164;-3.124;2023-09-30T02:01:50;12.88;;;2.63;;
47009;SDS011;59230;54.164;-3.124;2023-09-30T02:04:19;16.35;;;2.35;;
47009;SDS011;59230;54.164;-3.124;2023-09-30T02:07:24;18.17;;;2.20;;
47009;SDS011;59230;54.164;-3.124;2023-09-30T02:10:32;12.93;;;2.05;;
47009;SDS011;59230;54.164;-3.124;2023-09-30T02:13:03;12.23;;;1.90;;
47009;SDS011;59230;54.164;-3.124;2023-09-30T02:15:32;22.33;;;3.13;;
47009;SDS011;59230;54.164;-3.124;2023-09-30T02:18:11;19.90;;;2.38;;
47009;SDS011;59230;54.164;-3.124;2023-09-30T02:20:58;18.80;;;2.30;;
47009;SDS011;59230;54.164;-3.124;2023-09-30T02:23:42;20.17;;;2.90;;
47009;SDS011;59230;54.164;-3.124;2023-09-30T02:26:14;14.82;;;2.45;;
47009;SDS011;59230;54.164;-3.124;2023-09-30T02:29:03;23.63;;;3.53;;
47009;SDS011;59230;54.164;-3.124;2023-09-30T02:31:38;17.17;;;3.10;;
47009;SDS011;59230;54.164;-3.124;2023-09-30T02:34:26;17.77;;;2.40;;
47009;SDS011;59230;54.164;-3.124;2023-09-30T02:39:26;19.60;;;2.47;;
47009;SDS011;59230;54.164;-3.124;2023-09-30T02:41:55;14.25;;;1.90;;
47009;SDS011;59230;54.164;-3.124;2023-09-30T02:44:21;10.48;;;2.15;;
47009;SDS011;59230;54.164;-3.124;2023-09-30T02:47:02;22.60;;;2.28;;
47009;SDS011;59230;54.164;-3.124;2023-09-30T02:49:28;13.68;;;1.70;;
47009;SDS011;59230;54.164;-3.124;2023-09-30T02:51:59;10.35;;;1.77;;
47009;SDS011;59230;54.164;-3.124;2023-09-30T02:54:30;9.00;;;2.30;;
47009;SDS011;59230;54.164;-3.124;2023-09-30T02:57:01;19.13;;;2.42;;
47009;SDS011;59230;54.164;-3.124;2023-09-30T02:59:52;15.27;;;2.67;;
47009;SDS011;59230;54.164;-3.124;2023-09-30T03:02:25;7.65;;;2.13;;
47009;SDS011;59230;54.164;-3.124;2023-09-30T03:05:32;21.70;;;3.10;;
47009;SDS011;59230;54.164;-3.124;2023-09-30T03:08:00;14.77;;;2.38;;
47009;SDS011;59230;54.164;-3.124;2023-09-30T03:10:48;9.95;;;2.45;;
47009;SDS011;59230;54.164;-3.124;2023-09-30T03:13:16;20.65;;;3.30;;
47009;SDS011;59230;54.164;-3.124;2023-09-30T03:15:43;13.70;;;2.80;;
47009;SDS011;59230;54.164;-3.124;2023-09-30T03:18:11;21.58;;;3.38;;
47009;SDS011;59230;54.164;-3.124;2023-09-30T03:21:00;15.32;;;2.92;;
47009;SDS011;59230;54.164;-3.124;2023-09-30T03:23:45;14.38;;;2.47;;
47009;SDS011;59230;54.164;-3.124;2023-09-30T03:26:22;12.15;;;2.53;;
47009;SDS011;59230;54.164;-3.124;2023-09-30T03:28:55;11.57;;;2.10;;
47009;SDS011;59230;54.164;-3.124;2023-09-30T03:31:30;15.60;;;2.55;;
47009;SDS011;59230;54.164;-3.124;2023-09-30T03:34:38;12.10;;;2.55;;
47009;SDS011;59230;54.164;-3.124;2023-09-30T03:37:46;15.88;;;3.35;;
47009;SDS011;59230;54.164;-3.124;2023-09-30T03:40:45;14.93;;;2.63;;
47009;SDS011;59230;54.164;-3.124;2023-09-30T03:43:14;14.82;;;2.83;;
47009;SDS011;59230;54.164;-3.124;2023-09-30T03:45:50;16.85;;;3.13;;
47009;SDS011;59230;54.164;-3.124;2023-09-30T03:48:57;11.05;;;2.40;;
47009;SDS011;59230;54.164;-3.124;2023-09-30T03:51:44;15.13;;;2.83;;
47009;SDS011;59230;54.164;-3.124;2023-09-30T03:54:53;11.70;;;2.08;;
47009;SDS011;59230;54.164;-3.124;2023-09-30T03:57:42;17.67;;;2.90;;
47009;SDS011;59230;54.164;-3.124;2023-09-30T04:00:19;12.73;;;2.35;;
47009;SDS011;59230;54.164;-3.124;2023-09-30T04:03:27;20.45;;;2.58;;
47009;SDS011;59230;54.164;-3.124;2023-09-30T04:06:14;19.73;;;3.40;;
47009;SDS011;59230;54.164;-3.124;2023-09-30T04:12:14;15.30;;;2.70;;
47009;SDS011;59230;54.164;-3.124;2023-09-30T04:15:02;20.52;;;2.70;;
47009;SDS011;59230;54.164;-3.124;2023-09-30T04:17:48;12.43;;;2.45;;
47009;SDS011;59230;54.164;-3.124;2023-09-30T04:23:35;10.02;;;2.38;;
47009;SDS011;59230;54.164;-3.124;2023-09-30T04:26:27;17.05;;;2.90;;
47009;SDS011;59230;54.164;-3.124;2023-09-30T04:29:39;18.40;;;2.90;;
47009;SDS011;59230;54.164;-3.124;2023-09-30T04:33:06;11.45;;;1.85;;
47009;SDS011;59230;54.164;-3.124;2023-09-30T04:36:18;10.13;;;1.77;;
47009;SDS011;59230;54.164;-3.124;2023-09-30T04:39:33;12.93;;;2.60;;
47009;SDS011;59230;54.164;-3.124;2023-09-30T04:43:01;7.28;;;2.13;;
47009;SDS011;59230;54.164;-3.124;2023-09-30T04:45:58;21.20;;;2.95;;
47009;SDS011;59230;54.164;-3.124;2023-09-30T04:49:14;18.52;;;3.25;;
47009;SDS011;59230;54.164;-3.124;2023-09-30T04:52:44;19.30;;;3.30;;
47009;SDS011;59230;54.164;-3.124;2023-09-30T04:55:52;16.00;;;3.22;;
47009;SDS011;59230;54.164;-3.124;2023-09-30T04:58:22;17.30;;;3.72;;
47009;SDS011;59230;54.164;-3.124;2023-09-30T05:01:18;24.40;;;3.55;;
47009;SDS011;59230;54.164;-3.124;2023-09-30T05:04:50;20.98;;;2.72;;
47009;SDS011;59230;54.164;-3.124;2023-09-30T05:08:13;14.40;;;2.95;;
47009;SDS011;59230;54.164;-3.124;2023-09-30T05:10:45;21.52;;;2.72;;
47009;SDS011;59230;54.164;-3.124;2023-09-30T05:13:13;18.38;;;3.00;;
47009;SDS011;59230;54.164;-3.124;2023-09-30T05:16:21;20.38;;;2.95;;
47009;SDS011;59230;54.164;-3.124;2023-09-30T05:19:00;12.02;;;2.60;;
47009;SDS011;59230;54.164;-3.124;2023-09-30T05:21:37;18.75;;;2.70;;
47009;SDS011;59230;54.164;-3.124;2023-09-30T05:24:04;19.67;;;2.78;;
47009;SDS011;59230;54.164;-3.124;2023-09-30T05:26:50;13.40;;;2.60;;
47009;SDS011;59230;54.164;-3.124;2023-09-30T05:29:40;15.73;;;2.70;;
47009;SDS011;59230;54.164;-3.124;2023-09-30T05:32:34;15.32;;;2.10;;
47009;SDS011;59230;54.164;-3.124;2023-09-30T05:35:28;10.02;;;2.20;;
47009;SDS011;59230;54.164;-3.124;2023-09-30T05:38:16;12.98;;;2.78;;
47009;SDS011;59230;54.164;-3.124;2023-09-30T05:40:47;14.05;;;3.10;;
47009;SDS011;59230;54.164;-3.124;2023-09-30T05:43:52;14.10;;;2.42;;
47009;SDS011;59230;54.164;-3.124;2023-09-30T05:46:22;26.20;;;2.97;;
47009;SDS011;59230;54.164;-3.124;2023-09-30T05:48:47;19.33;;;2.65;;
47009;SDS011;59230;54.164;-3.124;2023-09-30T05:51:14;7.47;;;2.10;;
47009;SDS011;59230;54.164;-3.124;2023-09-30T05:53:52;14.68;;;2.78;;
47009;SDS011;59230;54.164;-3.124;2023-09-30T05:56:38;8.30;;;2.20;;
47009;SDS011;59230;54.164;-3.124;2023-09-30T05:59:18;11.77;;;2.40;;
47009;SDS011;59230;54.164;-3.124;2023-09-30T06:03:02;13.45;;;2.83;;
47009;SDS011;59230;54.164;-3.124;2023-09-30T06:05:49;21.63;;;3.72;;
47009;SDS011;59230;54.164;-3.124;2023-09-30T06:12:38;15.13;;;2.95;;
47009;SDS011;59230;54.164;-3.124;2023-09-30T06:23:09;8.75;;;2.30;;
47009;SDS011;59230;54.164;-3.124;2023-09-30T06:29:54;15.90;;;3.35;;
47009;SDS011;59230;54.164;-3.124;2023-09-30T06:33:22;22.42;;;3.30;;
47009;SDS011;59230;54.164;-3.124;2023-09-30T06:36:57;22.88;;;4.00;;
47009;SDS011;59230;54.164;-3.124;2023-09-30T06:42:49;17.35;;;4.10;;
47009;SDS011;59230;54.164;-3.124;2023-09-30T06:45:48;17.85;;;3.80;;
47009;SDS011;59230;54.164;-3.124;2023-09-30T06:49:01;27.30;;;4.40;;
47009;SDS011;59230;54.164;-3.124;2023-09-30T06:52:11;21.48;;;4.07;;
47009;SDS011;59230;54.164;-3.124;2023-09-30T06:55:07;21.98;;;4.47;;
47009;SDS011;59230;54.164;-3.124;2023-09-30T07:01:51;26.10;;;4.57;;
47009;SDS011;59230;54.164;-3.124;2023-09-30T07:04:37;26.58;;;4.97;;
47009;SDS011;59230;54.164;-3.124;2023-09-30T07:07:42;27.75;;;4.78;;
47009;SDS011;59230;54.164;-3.124;2023-09-30T07:10:12;24.88;;;3.90;;
47009;SDS011;59230;54.164;-3.124;2023-09-30T07:13:19;24.85;;;3.20;;
47009;SDS011;59230;54.164;-3.124;2023-09-30T07:20:07;12.30;;;2.90;;
47009;SDS011;59230;54.164;-3.124;2023-09-30T07:22:53;32.85;;;3.25;;
47009;SDS011;59230;54.164;-3.124;2023-09-30T07:26:00;28.95;;;4.40;;
47009;SDS011;59230;54.164;-3.124;2023-09-30T07:28:25;25.17;;;3.70;;
47009;SDS011;59230;54.164;-3.124;2023-09-30T07:30:53;23.50;;;3.97;;
47009;SDS011;59230;54.164;-3.124;2023-09-30T07:33:22;26.45;;;4.70;;
47009;SDS011;59230;54.164;-3.124;2023-09-30T07:35:47;24.58;;;5.28;;
47009;SDS011;59230;54.164;-3.124;2023-09-30T07:38:16;25.77;;;5.80;;
47009;SDS011;59230;54.164;-3.124;2023-09-30T07:40:45;33.80;;;5.97;;
47009;SDS011;59230;54.164;-3.124;2023-09-30T07:43:11;28.23;;;5.32;;
47009;SDS011;59230;54.164;-3.124;2023-09-30T07:45:40;29.20;;;4.95;;
47009;SDS011;59230;54.164;-3.124;2023-09-30T07:48:07;22.75;;;4.60;;
47009;SDS011;59230;54.164;-3.124;2023-09-30T07:50:35;23.58;;;3.95;;
47009;SDS011;59230;54.164;-3.124;2023-09-30T07:53:02;23.00;;;3.83;;
47009;SDS011;59230;54.164;-3.124;2023-09-30T07:55:29;24.55;;;3.70;;
47009;SDS011;59230;54.164;-3.124;2023-09-30T07:57:56;18.30;;;3.92;;
47009;SDS011;59230;54.164;-3.124;2023-09-30T08:00:25;17.45;;;3.60;;
47009;SDS011;59230;54.164;-3.124;2023-09-30T08:02:51;26.73;;;4.88;;
47009;SDS011;59230;54.164;-3.124;2023-09-30T08:05:18;32.42;;;6.15;;
47009;SDS011;59230;54.164;-3.124;2023-09-30T08:07:43;27.00;;;5.68;;
47009;SDS011;59230;54.164;-3.124;2023-09-30T08:10:11;30.90;;;5.50;;
47009;SDS011;59230;54.164;-3.124;2023-09-30T08:12:43;18.73;;;4.35;;
47009;SDS011;59230;54.164;-3.124;2023-09-30T08:15:12;17.25;;;4.30;;
47009;SDS011;59230;54.164;-3.124;2023-09-30T08:17:40;20.67;;;4.20;;
47009;SDS011;59230;54.164;-3.124;2023-09-30T08:20:06;25.92;;;4.68;;
47009;SDS011;59230;54.164;-3.124;2023-09-30T08:22:36;28.38;;;5.45;;
47009;SDS011;59230;54.164;-3.124;2023-09-30T08:25:03;35.05;;;6.72;;
47009;SDS011;59230;54.164;-3.124;2023-09-30T08:27:41;31.95;;;6.45;;
47009;SDS011;59230;54.164;-3.124;2023-09-30T08:30:07;44.63;;;6.93;;
47009;SDS011;59230;54.164;-3.124;2023-09-30T08:32:34;40.25;;;7.30;;
47009;SDS011;59230;54.164;-3.124;2023-09-30T08:35:05;42.33;;;7.35;;
47009;SDS011;59230;54.164;-3.124;2023-09-30T08:37:34;35.45;;;9.18;;
47009;SDS011;59230;54.164;-3.124;2023-09-30T08:39:59;40.08;;;7.82;;
47009;SDS011;59230;54.164;-3.124;2023-09-30T08:42:26;32.45;;;8.88;;
47009;SDS011;59230;54.164;-3.124;2023-09-30T08:44:57;37.30;;;9.73;;
47009;SDS011;59230;54.164;-3.124;2023-09-30T08:47:28;50.10;;;11.20;;
47009;SDS011;59230;54.164;-3.124;2023-09-30T08:49:56;41.17;;;10.07;;
47009;SDS011;59230;54.164;-3.124;2023-09-30T08:52:35;35.30;;;9.75;;
47009;SDS011;59230;54.164;-3.124;2023-09-30T08:55:06;37.63;;;9.77;;
47009;SDS011;59230;54.164;-3.124;2023-09-30T08:57:33;47.38;;;10.75;;
47009;SDS011;59230;54.164;-3.124;2023-09-30T09:00:06;51.10;;;11.07;;
47009;SDS011;59230;54.164;-3.124;2023-09-30T09:02:39;32.95;;;7.25;;
47009;SDS011;59230;54.164;-3.124;2023-09-30T09:05:04;35.22;;;8.90;;
47009;SDS011;59230;54.164;-3.124;2023-09-30T09:07:31;31.77;;;9.05;;
47009;SDS011;59230;54.164;-3.124;2023-09-30T09:10:11;27.65;;;8.50;;
47009;SDS011;59230;54.164;-3.124;2023-09-30T09:12:40;33.10;;;7.68;;
47009;SDS011;59230;54.164;-3.124;2023-09-30T09:15:06;31.48;;;7.68;;
47009;SDS011;59230;54.164;-3.124;2023-09-30T09:17:41;41.05;;;7.57;;
47009;SDS011;59230;54.164;-3.124;2023-09-30T09:20:16;37.65;;;8.15;;
47009;SDS011;59230;54.164;-3.124;2023-09-30T09:22:48;32.63;;;7.47;;
47009;SDS011;59230;54.164;-3.124;2023-09-30T09:25:23;39.20;;;7.63;;
47009;SDS011;59230;54.164;-3.124;2023-09-30T09:27:50;28.42;;;7.43;;
47009;SDS011;59230;54.164;-3.124;2023-09-30T09:30:25;42.55;;;7.72;;
47009;SDS011;59230;54.164;-3.124;2023-09-30T09:32:56;38.90;;;8.23;;
47009;SDS011;59230;54.164;-3.124;2023-09-30T09:35:25;40.97;;;13.02;;
47009;SDS011;59230;54.164;-3.124;2023-09-30T09:38:00;32.95;;;8.38;;
47009;SDS011;59230;54.164;-3.124;2023-09-30T09:43:04;24.75;;;6.60;;
47009;SDS011;59230;54.164;-3.124;2023-09-30T09:45:32;27.42;;;7.38;;
47009;SDS011;59230;54.164;-3.124;2023-09-30T09:48:01;37.58;;;7.80;;
47009;SDS011;59230;54.164;-3.124;2023-09-30T09:50:30;27.63;;;7.43;;
47009;SDS011;59230;54.164;-3.124;2023-09-30T09:53:05;20.10;;;6.15;;
47009;SDS011;59230;54.164;-3.124;2023-09-30T09:55:32;24.98;;;7.05;;
47009;SDS011;59230;54.164;-3.124;2023-09-30T09:58:00;28.65;;;7.50;;
47009;SDS011;59230;54.164;-3.124;2023-09-30T10:00:29;36.50;;;7.10;;
47009;SDS011;59230;54.164;-3.124;2023-09-30T10:02:56;28.25;;;7.32;;
47009;SDS011;59230;54.164;-3.124;2023-09-30T10:05:24;27.13;;;7.10;;
47009;SDS011;59230;54.164;-3.124;2023-09-30T10:07:57;25.60;;;6.38;;
47009;SDS011;59230;54.164;-3.124;2023-09-30T10:10:25;22.55;;;6.53;;
47009;SDS011;59230;54.164;-3.124;2023-09-30T10:12:52;19.77;;;5.75;;
47009;SDS011;59230;54.164;-3.124;2023-09-30T10:18:00;24.92;;;5.68;;
47009;SDS011;59230;54.164;-3.124;2023-09-30T10:20:33;27.75;;;6.15;;
47009;SDS011;59230;54.164;-3.124;2023-09-30T10:25:45;28.77;;;5.68;;
47009;SDS011;59230;54.164;-3.124;2023-09-30T10:31:11;30.63;;;5.70;;
47009;SDS011;59230;54.164;-3.124;2023-09-30T10:36:33;32.10;;;6.55;;
47009;SDS011;59230;54.164;-3.124;2023-09-30T10:39:17;24.05;;;5.38;;
47009;SDS011;59230;54.164;-3.124;2023-09-30T10:42:17;33.55;;;7.03;;
47009;SDS011;59230;54.164;-3.124;2023-09-30T10:45:41;23.98;;;6.43;;
47009;SDS011;59230;54.164;-3.124;2023-09-30T10:51:10;19.40;;;6.28;;
47009;SDS011;59230;54.164;-3.124;2023-09-30T10:53:44;27.08;;;6.43;;
47009;SDS011;59230;54.164;-3.124;2023-09-30T10:56:13;26.05;;;5.30;;
47009;SDS011;59230;54.164;-3.124;2023-09-30T10:58:51;22.02;;;5.57;;
47009;SDS011;59230;54.164;-3.124;2023-09-30T11:01:19;22.83;;;5.05;;
47009;SDS011;59230;54.164;-3.124;2023-09-30T11:03:49;25.65;;;5.88;;
47009;SDS011;59230;54.164;-3.124;2023-09-30T11:06:32;20.45;;;4.55;;
47009;SDS011;59230;54.164;-3.124;2023-09-30T11:09:00;22.70;;;4.43;;
47009;SDS011;59230;54.164;-3.124;2023-09-30T11:11:36;12.57;;;4.78;;
47009;SDS011;59230;54.164;-3.124;2023-09-30T11:14:02;28.27;;;4.80;;
47009;SDS011;59230;54.164;-3.124;2023-09-30T11:16:44;15.23;;;4.38;;
47009;SDS011;59230;54.164;-3.124;2023-09-30T11:19:12;22.90;;;5.00;;
47009;SDS011;59230;54.164;-3.124;2023-09-30T11:21:39;18.40;;;4.13;;
47009;SDS011;59230;54.164;-3.124;2023-09-30T11:24:06;20.85;;;4.40;;
47009;SDS011;59230;54.164;-3.124;2023-09-30T11:26:33;16.55;;;4.25;;
47009;SDS011;59230;54.164;-3.124;2023-09-30T11:29:20;27.80;;;5.13;;
47009;SDS011;59230;54.164;-3.124;2023-09-30T11:31:47;18.50;;;4.40;;
47009;SDS011;59230;54.164;-3.124;2023-09-30T11:34:16;18.67;;;4.13;;
47009;SDS011;59230;54.164;-3.124;2023-09-30T11:36:49;22.63;;;5.40;;
47009;SDS011;59230;54.164;-3.124;2023-09-30T11:39:24;19.20;;;4.82;;
47009;SDS011;59230;54.164;-3.124;2023-09-30T11:41:51;22.17;;;4.97;;
47009;SDS011;59230;54.164;-3.124;2023-09-30T11:44:18;18.58;;;4.65;;
47009;SDS011;59230;54.164;-3.124;2023-09-30T11:49:34;19.77;;;5.18;;
47009;SDS011;59230;54.164;-3.124;2023-09-30T11:52:02;17.37;;;5.00;;
47009;SDS011;59230;54.164;-3.124;2023-09-30T11:54:36;21.92;;;6.05;;
47009;SDS011;59230;54.164;-3.124;2023-09-30T11:57:12;22.10;;;6.30;;
47009;SDS011;59230;54.164;-3.124;2023-09-30T11:59:45;20.55;;;5.55;;
47009;SDS011;59230;54.164;-3.124;2023-09-30T12:02:14;18.52;;;4.60;;
47009;SDS011;59230;54.164;-3.124;2023-09-30T12:04:46;17.63;;;4.97;;
47009;SDS011;59230;54.164;-3.124;2023-09-30T12:07:18;17.20;;;5.53;;
47009;SDS011;59230;54.164;-3.124;2023-09-30T12:09:43;23.80;;;5.40;;
47009;SDS011;59230;54.164;-3.124;2023-09-30T12:12:09;13.48;;;4.75;;
47009;SDS011;59230;54.164;-3.124;2023-09-30T12:14:39;20.33;;;5.03;;
47009;SDS011;59230;54.164;-3.124;2023-09-30T12:17:06;23.63;;;5.60;;
47009;SDS011;59230;54.164;-3.124;2023-09-30T12:19:37;24.85;;;5.60;;
47009;SDS011;59230;54.164;-3.124;2023-09-30T12:22:04;17.80;;;5.22;;
47009;SDS011;59230;54.164;-3.124;2023-09-30T12:24:30;18.85;;;4.88;;
47009;SDS011;59230;54.164;-3.124;2023-09-30T12:26:58;29.50;;;5.68;;
47009;SDS011;59230;54.164;-3.124;2023-09-30T12:29:24;30.15;;;5.72;;
47009;SDS011;59230;54.164;-3.124;2023-09-30T12:31:51;27.52;;;6.72;;
47009;SDS011;59230;54.164;-3.124;2023-09-30T12:34:18;30.17;;;9.02;;
47009;SDS011;59230;54.164;-3.124;2023-09-30T12:36:48;37.08;;;10.32;;
47009;SDS011;59230;54.164;-3.124;2023-09-30T12:39:15;25.90;;;8.90;;
47009;SDS011;59230;54.164;-3.124;2023-09-30T12:41:44;31.58;;;9.10;;
47009;SDS011;59230;54.164;-3.124;2023-09-30T12:44:11;36.03;;;8.85;;
47009;SDS011;59230;54.164;-3.124;2023-09-30T12:46:36;25.10;;;6.55;;
47009;SDS011;59230;54.164;-3.124;2023-09-30T12:49:04;21.75;;;6.47;;
47009;SDS011;59230;54.164;-3.124;2023-09-30T12:51:36;26.83;;;6.90;;
47009;SDS011;59230;54.164;-3.124;2023-09-30T12:54:03;35.50;;;6.25;;
47009;SDS011;59230;54.164;-3.124;2023-09-30T12:56:29;36.63;;;6.63;;
47009;SDS011;59230;54.164;-3.124;2023-09-30T12:58:55;22.17;;;6.85;;
47009;SDS011;59230;54.164;-3.124;2023-09-30T13:01:24;32.55;;;7.38;;
47009;SDS011;59230;54.164;-3.124;2023-09-30T13:03:58;31.38;;;7.05;;
47009;SDS011;59230;54.164;-3.124;2023-09-30T13:06:24;26.83;;;7.00;;
47009;SDS011;59230;54.164;-3.124;2023-09-30T13:08:51;20.05;;;6.50;;
47009;SDS011;59230;54.164;-3.124;2023-09-30T13:11:18;33.60;;;7.25;;
47009;SDS011;59230;54.164;-3.124;2023-09-30T13:13:47;25.50;;;7.10;;
47009;SDS011;59230;54.164;-3.124;2023-09-30T13:16:13;25.90;;;6.25;;
47009;SDS011;59230;54.164;-3.124;2023-09-30T13:18:40;20.85;;;6.15;;
47009;SDS011;59230;54.164;-3.124;2023-09-30T13:21:06;24.40;;;6.57;;
47009;SDS011;59230;54.164;-3.124;2023-09-30T13:23:32;25.30;;;6.22;;
47009;SDS011;59230;54.164;-3.124;2023-09-30T13:25:59;28.98;;;6.10;;
47009;SDS011;59230;54.164;-3.124;2023-09-30T13:28:26;34.65;;;6.95;;
47009;SDS011;59230;54.164;-3.124;2023-09-30T13:30:53;28.85;;;6.32;;
47009;SDS011;59230;54.164;-3.124;2023-09-30T13:33:19;25.05;;;6.35;;
47009;SDS011;59230;54.164;-3.124;2023-09-30T13:35:49;40.38;;;7.13;;
47009;SDS011;59230;54.164;-3.124;2023-09-30T13:38:17;21.52;;;5.60;;
47009;SDS011;59230;54.164;-3.124;2023-09-30T13:40:43;28.42;;;7.05;;
47009;SDS011;59230;54.164;-3.124;2023-09-30T13:43:13;29.08;;;6.47;;
47009;SDS011;59230;54.164;-3.124;2023-09-30T13:45:39;34.50;;;6.97;;
47009;SDS011;59230;54.164;-3.124;2023-09-30T13:48:06;31.77;;;6.47;;
47009;SDS011;59230;54.164;-3.124;2023-09-30T13:50:31;21.08;;;6.10;;
47009;SDS011;59230;54.164;-3.124;2023-09-30T13:52:59;30.80;;;7.13;;
47009;SDS011;59230;54.164;-3.124;2023-09-30T13:55:26;26.52;;;7.10;;
47009;SDS011;59230;54.164;-3.124;2023-09-30T13:57:53;32.35;;;6.68;;
47009;SDS011;59230;54.164;-3.124;2023-09-30T14:00:19;30.38;;;6.95;;
47009;SDS011;59230;54.164;-3.124;2023-09-30T14:02:46;25.95;;;7.15;;
47009;SDS011;59230;54.164;-3.124;2023-09-30T14:05:11;34.92;;;7.80;;
47009;SDS011;59230;54.164;-3.124;2023-09-30T14:07:41;37.20;;;8.05;;
47009;SDS011;59230;54.164;-3.124;2023-09-30T14:10:08;35.17;;;7.40;;
47009;SDS011;59230;54.164;-3.124;2023-09-30T14:12:54;33.25;;;7.25;;
47009;SDS011;59230;54.164;-3.124;2023-09-30T14:15:23;28.48;;;6.90;;
47009;SDS011;59230;54.164;-3.124;2023-09-30T14:17:52;26.20;;;7.00;;
47009;SDS011;59230;54.164;-3.124;2023-09-30T14:20:22;30.10;;;6.82;;
47009;SDS011;59230;54.164;-3.124;2023-09-30T14:22:48;34.53;;;7.20;;
47009;SDS011;59230;54.164;-3.124;2023-09-30T14:25:13;29.55;;;6.53;;
47009;SDS011;59230;54.164;-3.124;2023-09-30T14:27:39;22.65;;;6.32;;
47009;SDS011;59230;54.164;-3.124;2023-09-30T14:30:05;25.85;;;5.07;;
47009;SDS011;59230;54.164;-3.124;2023-09-30T14:32:32;29.00;;;5.95;;
47009;SDS011;59230;54.164;-3.124;2023-09-30T14:35:06;23.52;;;5.60;;
47009;SDS011;59230;54.164;-3.124;2023-09-30T14:37:36;21.60;;;5.47;;
47009;SDS011;59230;54.164;-3.124;2023-09-30T14:40:02;18.73;;;4.38;;
47009;SDS011;59230;54.164;-3.124;2023-09-30T14:42:37;24.77;;;5.05;;
47009;SDS011;59230;54.164;-3.124;2023-09-30T14:45:03;19.33;;;4.85;;
47009;SDS011;59230;54.164;-3.124;2023-09-30T14:47:30;22.60;;;4.65;;
47009;SDS011;59230;54.164;-3.124;2023-09-30T14:49:58;12.55;;;3.70;;
47009;SDS011;59230;54.164;-3.124;2023-09-30T14:52:27;12.73;;;3.55;;
